KSZL/SZL METAR and TAF weather

Enter ICAO airport designator
Station Type Date Time Source
KSZL METAR 2020/09/26 22:56 UTC NOAA

KSZL 262256Z AUTO 19012G17KT 10SM CLR 29/ A2967 RMK AO2 SLP043 $


Station Type Date Time Source
KSZL Decoded METAR 2020/09/26 22:56 UTC NOAA

Whiteman Air Force Base, MO, United States (KSZL) 38-44N 093-33W
Sep 26, 2020 - 06:56 PM EDT / 2020.09.26 2256 UTC
Wind: from the S (190 degrees) at 14 MPH (12 KT) gusting to 20 MPH (17 KT):0
Visibility: 10 mile(s):0
Sky conditions: clear
Temperature: 84 F (29 C)
Pressure (altimeter): 29.67 in. Hg (1004 hPa)
ob: KSZL 262256Z AUTO 19012G17KT 10SM CLR 29/ A2967 RMK AO2 SLP043
cycle: 23

Station Type Date Time Source
KSZL TAF 2020/09/26 19:19 UTC NOAA

TAF KSZL 261900Z 2619/2801 18009KT 9999 SKC QNH2975INS
BECMG 2715/2716 21015KT 9999 BKN050 OVC100 QNH2970INS
BECMG 2719/2720 21020KT 6000 -SHRA OVC030 QNH2969INS
BECMG 2723/2801 35020G35KT 4800 TSRA OVC010CB QNH2975INS TX29/2621Z TN17/2712Z

Example: see airport list